Time;durP1;ratioP1;P1;durP2;ratioP2;P2;SDS_P1;SDS_P2;PMS_P1;PMS_P2;Temp;Humidity;BMP_temperature;BMP_pressure;BME280_temperature;BME280_humidity;BME280_pressure;Samples;Min_cycle;Max_cycle;Signal;HPM_P1;HPM_P2
2022/04/05 00:02:10;;;;;;;5.97;5.38;;;;;;;;;;5076335;28;20362;-52
2022/04/05 00:04:35;;;;;;;4.90;4.50;;;;;;;;;;5078587;28;20047;-49
2022/04/05 00:07:00;;;;;;;4.88;4.47;;;;;;;;;;5077305;28;20065;-50
2022/04/05 00:09:26;;;;;;;5.05;4.65;;;;;;;;;;5056909;28;20075;-48
2022/04/05 00:11:51;;;;;;;5.03;4.63;;;;;;;;;;5073568;28;20033;-49
2022/04/05 00:14:16;;;;;;;5.07;4.68;;;;;;;;;;5078008;28;20024;-50
2022/04/05 00:16:42;;;;;;;4.57;4.18;;;;;;;;;;5073348;28;20465;-50
2022/04/05 00:19:07;;;;;;;4.90;4.50;;;;;;;;;;5073533;28;20518;-51
2022/04/05 00:21:32;;;;;;;4.75;4.35;;;;;;;;;;5074428;28;20445;-49
2022/04/05 00:23:58;;;;;;;5.30;4.88;;;;;;;;;;5069268;28;20146;-50
2022/04/05 00:26:23;;;;;;;5.07;4.68;;;;;;;;;;5068356;28;20568;-50
2022/04/05 00:28:48;;;;;;;4.75;4.35;;;;;;;;;;5074731;28;20035;-48
2022/04/05 00:31:14;;;;;;;4.55;4.15;;;;;;;;;;5072839;28;20044;-48
2022/04/05 00:33:39;;;;;;;5.18;4.72;;;;;;;;;;5072627;28;20417;-48
2022/04/05 00:36:05;;;;;;;5.05;4.65;;;;;;;;;;5070226;28;20127;-49
2022/04/05 00:38:31;;;;;;;5.55;5.15;;;;;;;;;;5071529;28;20508;-51
2022/04/05 00:40:56;;;;;;;4.93;4.43;;;;;;;;;;5069417;28;20040;-50
2022/04/05 00:43:21;;;;;;;4.97;4.57;;;;;;;;;;5075155;28;20070;-50
2022/04/05 00:45:47;;;;;;;4.88;4.47;;;;;;;;;;5073163;28;20051;-50
2022/04/05 00:48:29;;;;;;;5.07;4.68;;;;;;;;;;5072485;28;20040;-49
2022/04/05 00:50:55;;;;;;;4.68;4.28;;;;;;;;;;5072964;28;20107;-49
2022/04/05 00:53:24;;;;;;;4.55;4.15;;;;;;;;;;5070398;28;20123;-52
2022/04/05 00:55:52;;;;;;;4.70;4.30;;;;;;;;;;5072491;28;20036;-51
2022/04/05 00:58:19;;;;;;;7.97;4.65;;;;;;;;;;5073480;28;20036;-52
2022/04/05 01:00:47;;;;;;;4.80;4.40;;;;;;;;;;5070518;28;20115;-51
2022/04/05 01:03:13;;;;;;;4.68;4.25;;;;;;;;;;5070184;28;20040;-51
2022/04/05 01:05:39;;;;;;;4.85;4.45;;;;;;;;;;5069875;28;20620;-51
2022/04/05 01:08:07;;;;;;;5.50;5.00;;;;;;;;;;5069989;28;20381;-53
2022/04/05 01:10:33;;;;;;;4.68;4.28;;;;;;;;;;5071047;28;20036;-52
2022/04/05 01:12:59;;;;;;;4.43;4.03;;;;;;;;;;5072137;28;20154;-53
2022/04/05 01:15:24;;;;;;;4.63;4.22;;;;;;;;;;5072233;28;20123;-52
2022/04/05 01:17:51;;;;;;;4.65;4.25;;;;;;;;;;5068760;28;20167;-51
2022/04/05 01:20:17;;;;;;;5.05;4.55;;;;;;;;;;5069841;28;20032;-53
2022/04/05 01:22:49;;;;;;;4.55;4.10;;;;;;;;;;5073775;28;20046;-53
2022/04/05 01:25:17;;;;;;;4.90;4.50;;;;;;;;;;5072667;28;20039;-53
2022/04/05 01:27:43;;;;;;;4.63;4.22;;;;;;;;;;5072917;28;20411;-51
2022/04/05 01:30:09;;;;;;;4.70;4.30;;;;;;;;;;5077351;28;20093;-51
2022/04/05 01:32:35;;;;;;;4.70;4.30;;;;;;;;;;5075890;28;20063;-51
2022/04/05 01:35:00;;;;;;;4.65;4.25;;;;;;;;;;5078880;28;20093;-52
2022/04/05 01:37:26;;;;;;;4.82;4.43;;;;;;;;;;5075727;28;20051;-51
2022/04/05 01:39:51;;;;;;;4.65;4.25;;;;;;;;;;5074918;28;20123;-50
2022/04/05 01:42:17;;;;;;;4.55;4.18;;;;;;;;;;5072663;28;20068;-53
2022/04/05 01:44:43;;;;;;;4.25;3.92;;;;;;;;;;5075831;28;20036;-50
2022/04/05 01:47:12;;;;;;;5.03;4.63;;;;;;;;;;5074995;28;20040;-47
2022/04/05 01:49:39;;;;;;;4.78;4.38;;;;;;;;;;5075551;28;20493;-48
2022/04/05 01:52:06;;;;;;;4.75;4.35;;;;;;;;;;5074383;28;20414;-49
2022/04/05 01:54:31;;;;;;;4.65;4.25;;;;;;;;;;5074453;28;20028;-52
2022/04/05 01:56:57;;;;;;;4.82;4.43;;;;;;;;;;5074232;28;20117;-53
2022/04/05 01:59:25;;;;;;;5.38;4.88;;;;;;;;;;5073640;28;20036;-54
2022/04/05 02:01:51;;;;;;;4.45;4.05;;;;;;;;;;5073813;28;20037;-53
2022/04/05 02:04:16;;;;;;;4.95;4.55;;;;;;;;;;5076753;28;20067;-51
2022/04/05 02:06:43;;;;;;;4.85;4.45;;;;;;;;;;5076944;28;20032;-52
2022/04/05 02:09:11;;;;;;;5.00;4.60;;;;;;;;;;5075199;28;20742;-51
2022/04/05 02:11:37;;;;;;;4.95;4.55;;;;;;;;;;5073337;28;20838;-54
2022/04/05 02:14:03;;;;;;;4.72;4.32;;;;;;;;;;5077217;28;20504;-56
2022/04/05 02:16:28;;;;;;;4.60;4.20;;;;;;;;;;5074487;28;20111;-51
2022/04/05 02:18:54;;;;;;;5.18;4.68;;;;;;;;;;5074766;28;20040;-52
2022/04/05 02:21:19;;;;;;;4.55;4.15;;;;;;;;;;5077465;28;20085;-53
2022/04/05 02:23:45;;;;;;;4.40;4.00;;;;;;;;;;5076511;28;20124;-53
2022/04/05 02:26:11;;;;;;;5.25;4.75;;;;;;;;;;5072901;28;20071;-51
2022/04/05 02:28:36;;;;;;;4.28;3.88;;;;;;;;;;5073125;28;20033;-53
2022/04/05 02:31:02;;;;;;;4.43;4.03;;;;;;;;;;5074900;28;20028;-51
2022/04/05 02:33:27;;;;;;;5.50;3.80;;;;;;;;;;5075980;28;20097;-51
2022/04/05 02:35:52;;;;;;;4.18;3.78;;;;;;;;;;5074095;28;20032;-53
2022/04/05 02:38:18;;;;;;;4.30;3.90;;;;;;;;;;5074594;28;20465;-52
2022/04/05 02:40:44;;;;;;;5.00;4.60;;;;;;;;;;5076073;28;20385;-51
2022/04/05 02:43:11;;;;;;;4.75;4.35;;;;;;;;;;5071908;28;20062;-53
2022/04/05 02:45:36;;;;;;;4.82;4.43;;;;;;;;;;5078154;28;20032;-50
2022/04/05 02:48:03;;;;;;;4.30;3.90;;;;;;;;;;5077012;28;20054;-49
2022/04/05 02:50:28;;;;;;;5.00;4.60;;;;;;;;;;5076360;28;20020;-54
2022/04/05 02:52:54;;;;;;;4.63;4.22;;;;;;;;;;5075360;28;20047;-52
2022/04/05 02:55:19;;;;;;;5.00;4.60;;;;;;;;;;5074676;28;20457;-49
2022/04/05 02:57:45;;;;;;;4.63;4.22;;;;;;;;;;5076150;28;20107;-52
2022/04/05 03:00:13;;;;;;;4.75;4.35;;;;;;;;;;5073474;28;20036;-50
2022/04/05 03:02:39;;;;;;;5.00;4.60;;;;;;;;;;5071205;28;20040;-51
2022/04/05 03:05:06;;;;;;;4.68;4.28;;;;;;;;;;5074384;28;20032;-51
2022/04/05 03:07:34;;;;;;;5.22;4.72;;;;;;;;;;5072992;28;20024;-51
2022/04/05 03:10:01;;;;;;;6.13;4.55;;;;;;;;;;5075094;28;20031;-51
2022/04/05 03:12:26;;;;;;;4.57;4.18;;;;;;;;;;5073423;28;20028;-50
2022/04/05 03:14:52;;;;;;;5.00;4.60;;;;;;;;;;5069489;28;20036;-52
2022/04/05 03:17:17;;;;;;;4.50;4.10;;;;;;;;;;5073715;28;20071;-49
2022/04/05 03:19:43;;;;;;;4.57;4.18;;;;;;;;;;5073626;28;20376;-51
2022/04/05 03:22:11;;;;;;;4.03;3.72;;;;;;;;;;5075014;28;20071;-52
2022/04/05 03:24:37;;;;;;;4.57;4.18;;;;;;;;;;5076744;28;20036;-52
2022/04/05 03:27:03;;;;;;;4.85;4.45;;;;;;;;;;5071351;28;20102;-49
2022/04/05 03:29:28;;;;;;;4.55;4.15;;;;;;;;;;5068870;28;20085;-54
2022/04/05 03:31:54;;;;;;;4.30;4.00;;;;;;;;;;5074770;28;20024;-51
2022/04/05 03:34:20;;;;;;;4.38;3.97;;;;;;;;;;5073252;28;20036;-52
2022/04/05 03:36:45;;;;;;;4.50;4.10;;;;;;;;;;5075289;28;20110;-51
2022/04/05 03:39:13;;;;;;;4.85;4.45;;;;;;;;;;5073884;28;20492;-52
2022/04/05 03:41:39;;;;;;;4.60;4.20;;;;;;;;;;5074672;28;20039;-50
2022/04/05 03:44:05;;;;;;;4.63;4.22;;;;;;;;;;5074673;28;20032;-48
2022/04/05 03:46:30;;;;;;;4.00;3.70;;;;;;;;;;5070115;28;20043;-51
2022/04/05 03:48:55;;;;;;;4.80;4.40;;;;;;;;;;5074780;28;20496;-50
2022/04/05 03:51:21;;;;;;;4.78;4.38;;;;;;;;;;5073935;28;20384;-49
2022/04/05 03:53:46;;;;;;;5.15;4.65;;;;;;;;;;5075354;28;20078;-52
2022/04/05 03:56:12;;;;;;;4.82;4.43;;;;;;;;;;5073196;28;20087;-50
2022/04/05 03:58:37;;;;;;;4.75;4.35;;;;;;;;;;5071943;28;20105;-48
2022/04/05 04:01:03;;;;;;;4.75;4.35;;;;;;;;;;5076905;28;20040;-52
2022/04/05 04:03:28;;;;;;;5.80;4.65;;;;;;;;;;5074467;28;20093;-49
2022/04/05 04:05:54;;;;;;;5.15;4.75;;;;;;;;;;5081231;28;20036;-50
2022/04/05 04:08:19;;;;;;;4.13;3.83;;;;;;;;;;5072027;28;20040;-48
2022/04/05 04:10:48;;;;;;;4.75;4.35;;;;;;;;;;5071239;28;20043;-48
2022/04/05 04:13:14;;;;;;;4.82;4.32;;;;;;;;;;5074067;28;20036;-48
2022/04/05 04:15:39;;;;;;;4.85;4.45;;;;;;;;;;5076183;28;20032;-47
2022/04/05 04:18:05;;;;;;;4.75;4.35;;;;;;;;;;5075825;28;20376;-48
2022/04/05 04:20:30;;;;;;;5.20;4.80;;;;;;;;;;5077103;28;20428;-48
2022/04/05 04:22:55;;;;;;;5.18;4.43;;;;;;;;;;5074331;28;20090;-50
2022/04/05 04:25:21;;;;;;;5.43;4.88;;;;;;;;;;5072137;28;20138;-47
2022/04/05 04:27:46;;;;;;;4.20;3.80;;;;;;;;;;5072738;28;20536;-49
2022/04/05 04:30:12;;;;;;;4.63;4.22;;;;;;;;;;5074698;28;20476;-49
2022/04/05 04:32:37;;;;;;;4.95;4.55;;;;;;;;;;5071763;28;20143;-48
2022/04/05 04:35:02;;;;;;;4.93;4.40;;;;;;;;;;5073472;28;20059;-48
2022/04/05 04:37:28;;;;;;;5.18;4.72;;;;;;;;;;5077012;28;20032;-49
2022/04/05 04:39:53;;;;;;;4.57;4.18;;;;;;;;;;5074189;28;20039;-50
2022/04/05 04:42:19;;;;;;;4.90;4.45;;;;;;;;;;5073600;28;20450;-47
2022/04/05 04:44:44;;;;;;;5.00;4.60;;;;;;;;;;5075086;28;20500;-49
2022/04/05 04:47:10;;;;;;;5.43;4.97;;;;;;;;;;5072111;28;20043;-49
2022/04/05 04:49:35;;;;;;;4.20;3.90;;;;;;;;;;5071564;28;20035;-49
2022/04/05 04:52:02;;;;;;;5.38;4.90;;;;;;;;;;5075133;28;20033;-51
2022/04/05 04:54:28;;;;;;;5.00;4.60;;;;;;;;;;5075124;28;20033;-48
2022/04/05 04:56:53;;;;;;;5.15;4.68;;;;;;;;;;5075450;28;20036;-50
2022/04/05 04:59:18;;;;;;;4.85;4.45;;;;;;;;;;5074460;28;20913;-48
2022/04/05 05:01:44;;;;;;;4.43;4.07;;;;;;;;;;5072028;28;20032;-51
2022/04/05 05:04:09;;;;;;;4.97;4.47;;;;;;;;;;5074975;28;20036;-52
2022/04/05 05:06:34;;;;;;;4.32;4.00;;;;;;;;;;5073834;28;20025;-52
2022/04/05 05:09:00;;;;;;;5.05;4.65;;;;;;;;;;5073906;28;20123;-52
2022/04/05 05:11:25;;;;;;;4.45;4.13;;;;;;;;;;5073620;28;20035;-48
2022/04/05 05:13:50;;;;;;;4.85;4.45;;;;;;;;;;5074922;28;20054;-51
2022/04/05 05:16:16;;;;;;;6.53;4.85;;;;;;;;;;5071375;28;20028;-51
2022/04/05 05:18:42;;;;;;;4.80;4.40;;;;;;;;;;5071248;28;20044;-49
2022/04/05 05:21:07;;;;;;;4.53;4.13;;;;;;;;;;5072876;28;20366;-47
2022/04/05 05:23:32;;;;;;;4.57;4.18;;;;;;;;;;5074238;28;20043;-47
2022/04/05 05:25:58;;;;;;;4.43;4.03;;;;;;;;;;5073941;28;20033;-47
2022/04/05 05:28:23;;;;;;;4.72;4.32;;;;;;;;;;5074265;28;20051;-46
2022/04/05 05:30:49;;;;;;;4.57;4.18;;;;;;;;;;5073354;28;20039;-48
2022/04/05 05:33:14;;;;;;;4.95;4.55;;;;;;;;;;5069513;28;20035;-48
2022/04/05 05:35:39;;;;;;;5.07;4.57;;;;;;;;;;5074423;28;20571;-48
2022/04/05 05:38:05;;;;;;;4.82;4.43;;;;;;;;;;5079610;28;20043;-48
2022/04/05 05:40:30;;;;;;;4.75;4.35;;;;;;;;;;5077725;28;20893;-50
2022/04/05 05:42:58;;;;;;;4.93;4.53;;;;;;;;;;5068169;28;20036;-48
2022/04/05 05:45:26;;;;;;;4.43;4.03;;;;;;;;;;5070464;28;20039;-49
2022/04/05 05:47:51;;;;;;;4.60;4.20;;;;;;;;;;5070966;28;20619;-46
2022/04/05 05:50:18;;;;;;;4.35;3.97;;;;;;;;;;5069454;28;20044;-47
2022/04/05 05:52:44;;;;;;;5.03;4.57;;;;;;;;;;5069222;28;20051;-47
2022/04/05 05:55:11;;;;;;;5.25;4.38;;;;;;;;;;5074057;28;20035;-48
2022/04/05 05:57:37;;;;;;;4.90;4.40;;;;;;;;;;5077345;28;20530;-51
2022/04/05 06:00:06;;;;;;;4.78;4.38;;;;;;;;;;5067172;28;20036;-50
2022/04/05 06:02:32;;;;;;;4.80;4.40;;;;;;;;;;5067958;28;20039;-54
2022/04/05 06:04:57;;;;;;;5.72;5.22;;;;;;;;;;5067437;28;20059;-49
2022/04/05 06:07:23;;;;;;;4.80;4.40;;;;;;;;;;5074528;28;20059;-52
2022/04/05 06:09:48;;;;;;;4.35;3.80;;;;;;;;;;5077216;28;20021;-49
2022/04/05 06:12:13;;;;;;;4.03;3.72;;;;;;;;;;5080611;28;20023;-49
2022/04/05 06:14:39;;;;;;;4.93;4.53;;;;;;;;;;5077724;28;20040;-51
2022/04/05 06:17:04;;;;;;;4.30;3.92;;;;;;;;;;5078022;28;20028;-49
2022/04/05 06:19:30;;;;;;;4.60;4.20;;;;;;;;;;5073953;28;20021;-48
2022/04/05 06:21:55;;;;;;;4.82;4.43;;;;;;;;;;5081464;28;20042;-51
2022/04/05 06:24:20;;;;;;;4.57;4.18;;;;;;;;;;5072294;28;20373;-49
2022/04/05 06:26:46;;;;;;;4.70;4.30;;;;;;;;;;5075681;28;20044;-47
2022/04/05 06:29:11;;;;;;;4.97;4.57;;;;;;;;;;5076381;28;20044;-51
2022/04/05 06:31:36;;;;;;;5.05;4.65;;;;;;;;;;5075237;28;20309;-50
2022/04/05 06:34:02;;;;;;;5.32;4.93;;;;;;;;;;5079716;28;20037;-48
2022/04/05 06:36:31;;;;;;;4.47;4.13;;;;;;;;;;5075790;28;20037;-51
2022/04/05 06:38:57;;;;;;;5.40;4.78;;;;;;;;;;5075460;28;20056;-51
2022/04/05 06:41:22;;;;;;;4.60;4.20;;;;;;;;;;5076551;28;20074;-49
2022/04/05 06:43:47;;;;;;;4.60;4.20;;;;;;;;;;5075569;28;20052;-50
2022/04/05 06:46:15;;;;;;;4.53;4.18;;;;;;;;;;5074423;28;20393;-50
2022/04/05 06:48:40;;;;;;;4.43;4.03;;;;;;;;;;5076436;28;20369;-51
2022/04/05 06:51:06;;;;;;;4.45;4.05;;;;;;;;;;5077260;28;20024;-48
2022/04/05 06:53:31;;;;;;;4.68;4.28;;;;;;;;;;5079828;28;20120;-48
2022/04/05 06:55:57;;;;;;;5.55;5.07;;;;;;;;;;5076877;28;20040;-49
2022/04/05 06:58:22;;;;;;;6.18;5.57;;;;;;;;;;5075458;28;20036;-49
2022/04/05 07:00:47;;;;;;;5.15;4.75;;;;;;;;;;5074566;28;20078;-50
2022/04/05 07:03:13;;;;;;;5.65;5.22;;;;;;;;;;5071699;28;20040;-50
2022/04/05 07:05:38;;;;;;;4.68;4.28;;;;;;;;;;5077031;28;20110;-50
2022/04/05 07:08:03;;;;;;;4.45;4.07;;;;;;;;;;5077555;28;20114;-48
2022/04/05 07:10:29;;;;;;;5.30;4.85;;;;;;;;;;5076354;28;20028;-50
2022/04/05 07:12:54;;;;;;;4.97;4.57;;;;;;;;;;5078199;28;20416;-50
2022/04/05 07:15:20;;;;;;;5.70;5.18;;;;;;;;;;5076036;28;20029;-49
2022/04/05 07:17:45;;;;;;;5.95;5.20;;;;;;;;;;5072060;28;20056;-52
2022/04/05 07:20:11;;;;;;;4.53;4.13;;;;;;;;;;5079303;28;20021;-48
2022/04/05 07:22:44;;;;;;;4.82;4.43;;;;;;;;;;5073686;28;20039;-48
2022/04/05 07:25:09;;;;;;;5.10;4.65;;;;;;;;;;5074873;28;20020;-49
2022/04/05 07:27:34;;;;;;;3.95;3.65;;;;;;;;;;5076353;28;20343;-49
2022/04/05 07:30:00;;;;;;;6.03;5.53;;;;;;;;;;5079151;28;20040;-48
2022/04/05 07:32:26;;;;;;;4.72;4.32;;;;;;;;;;5077781;28;20031;-51
2022/04/05 07:34:52;;;;;;;5.43;5.03;;;;;;;;;;5077010;28;20039;-52
2022/04/05 07:37:17;;;;;;;4.45;4.05;;;;;;;;;;5076722;28;20044;-51
2022/04/05 07:39:42;;;;;;;4.78;4.38;;;;;;;;;;5077770;28;20472;-51
2022/04/05 07:42:08;;;;;;;5.40;5.00;;;;;;;;;;5075170;28;20524;-50
2022/04/05 07:44:34;;;;;;;4.05;3.75;;;;;;;;;;5076051;28;20046;-51
2022/04/05 07:47:00;;;;;;;4.30;3.95;;;;;;;;;;5075418;28;20032;-50
2022/04/05 07:49:25;;;;;;;4.20;3.80;;;;;;;;;;5076737;28;20023;-52
2022/04/05 07:51:50;;;;;;;4.35;3.95;;;;;;;;;;5078751;28;20377;-52
2022/04/05 07:54:16;;;;;;;4.60;4.20;;;;;;;;;;5075892;28;20040;-48
2022/04/05 07:56:41;;;;;;;4.35;3.95;;;;;;;;;;5078410;28;20036;-52
2022/04/05 07:59:07;;;;;;;4.53;4.13;;;;;;;;;;5076165;28;20357;-50
2022/04/05 08:01:32;;;;;;;3.95;3.65;;;;;;;;;;5080135;28;20377;-50
2022/04/05 08:03:57;;;;;;;4.72;4.32;;;;;;;;;;5077265;28;20035;-50
2022/04/05 08:06:24;;;;;;;4.25;3.85;;;;;;;;;;5077661;28;20047;-49
2022/04/05 08:08:49;;;;;;;4.05;3.75;;;;;;;;;;5078440;28;20066;-50
2022/04/05 08:11:15;;;;;;;4.70;4.30;;;;;;;;;;5072738;28;20064;-51
2022/04/05 08:13:40;;;;;;;4.50;4.10;;;;;;;;;;5075708;28;20037;-51
2022/04/05 08:16:06;;;;;;;4.60;4.20;;;;;;;;;;5077005;28;20043;-53
2022/04/05 08:18:31;;;;;;;4.55;4.15;;;;;;;;;;5074927;28;20574;-50
2022/04/05 08:20:56;;;;;;;4.40;4.00;;;;;;;;;;5079710;28;20081;-51
2022/04/05 08:23:22;;;;;;;4.55;4.15;;;;;;;;;;5078661;28;20039;-50
2022/04/05 08:25:47;;;;;;;4.25;3.95;;;;;;;;;;5077240;28;20123;-49
2022/04/05 08:28:12;;;;;;;4.78;4.38;;;;;;;;;;5076319;28;20033;-49
2022/04/05 08:30:38;;;;;;;4.22;3.88;;;;;;;;;;5076848;28;20034;-50
2022/04/05 08:33:03;;;;;;;4.25;3.90;;;;;;;;;;5077724;28;20067;-51
2022/04/05 08:35:29;;;;;;;4.63;4.22;;;;;;;;;;5076444;28;20361;-50
2022/04/05 08:37:55;;;;;;;4.10;3.80;;;;;;;;;;5076574;28;20036;-50
2022/04/05 08:40:23;;;;;;;4.32;4.03;;;;;;;;;;5076179;28;20449;-49
2022/04/05 08:42:51;;;;;;;4.53;4.13;;;;;;;;;;5079870;28;20047;-49
2022/04/05 08:45:19;;;;;;;4.40;4.00;;;;;;;;;;5073190;28;20048;-50
2022/04/05 08:47:47;;;;;;;4.07;3.67;;;;;;;;;;5075775;28;20103;-50
2022/04/05 08:50:18;;;;;;;4.65;4.25;;;;;;;;;;5073122;28;20048;-50
2022/04/05 08:52:44;;;;;;;;;;;;;;;;;;5076179;28;20044;-51
2022/04/05 08:55:10;;;;;;;3.70;3.40;;;;;;;;;;5077990;28;19916;-49
2022/04/05 08:57:35;;;;;;;4.75;4.35;;;;;;;;;;5074816;28;20036;-53
2022/04/05 09:00:06;;;;;;;4.10;3.80;;;;;;;;;;5075043;28;20046;-52
2022/04/05 09:02:31;;;;;;;3.70;3.40;;;;;;;;;;5075391;28;20074;-52
2022/04/05 09:04:56;;;;;;;4.40;4.00;;;;;;;;;;5076926;28;20059;-50
2022/04/05 09:07:24;;;;;;;4.60;4.20;;;;;;;;;;5073446;28;20119;-50
2022/04/05 09:10:06;;;;;;;5.63;5.22;;;;;;;;;;5071599;28;20029;-51
2022/04/05 09:12:50;;;;;;;5.25;4.85;;;;;;;;;;5074432;28;20508;-51
2022/04/05 09:15:16;;;;;;;6.05;5.65;;;;;;;;;;5075625;28;20043;-51
2022/04/05 09:17:43;;;;;;;5.03;4.63;;;;;;;;;;5075246;28;20350;-51
2022/04/05 09:20:09;;;;;;;4.10;3.80;;;;;;;;;;5073701;28;20032;-52
2022/04/05 09:22:35;;;;;;;4.50;4.10;;;;;;;;;;5076093;28;20036;-48
2022/04/05 09:25:14;;;;;;;4.63;4.22;;;;;;;;;;5073492;28;20040;-53
2022/04/05 09:27:51;;;;;;;4.40;4.00;;;;;;;;;;5073478;28;20094;-52
2022/04/05 09:30:19;;;;;;;4.20;3.90;;;;;;;;;;5073914;28;20040;-49
2022/04/05 09:32:47;;;;;;;4.18;3.88;;;;;;;;;;5071044;28;20040;-50
2022/04/05 09:35:16;;;;;;;5.93;5.43;;;;;;;;;;5075394;28;20038;-51
2022/04/05 09:37:42;;;;;;;4.38;4.03;;;;;;;;;;5074407;28;20036;-51
2022/04/05 09:40:32;;;;;;;5.20;4.70;;;;;;;;;;5073498;28;20118;-52
2022/04/05 09:43:09;;;;;;;4.50;4.10;;;;;;;;;;5075330;28;20036;-53
2022/04/05 09:45:45;;;;;;;4.88;4.47;;;;;;;;;;5079703;28;20024;-50
2022/04/05 09:48:11;;;;;;;4.15;3.85;;;;;;;;;;5076205;28;20096;-49
2022/04/05 09:51:00;;;;;;;4.47;4.15;;;;;;;;;;5079240;28;20063;-51
2022/04/05 09:53:51;;;;;;;4.95;4.55;;;;;;;;;;5070032;28;20376;-51
2022/04/05 09:56:26;;;;;;;5.22;4.82;;;;;;;;;;5082206;28;20063;-53
2022/04/05 09:58:56;;;;;;;5.47;5.07;;;;;;;;;;5079151;28;20036;-50
2022/04/05 10:01:27;;;;;;;6.03;4.55;;;;;;;;;;5075845;28;20371;-49
2022/04/05 10:04:08;;;;;;;5.72;5.32;;;;;;;;;;5074134;28;20032;-50
2022/04/05 10:06:35;;;;;;;;;;;;;;;;;;5072103;28;20127;-51
2022/04/05 10:09:01;;;;;;;5.40;5.00;;;;;;;;;;5074344;28;20348;-51
2022/04/05 10:11:32;;;;;;;5.55;5.15;;;;;;;;;;5070364;28;20033;-52
2022/04/05 10:13:58;;;;;;;5.97;5.47;;;;;;;;;;5075954;28;20039;-53
2022/04/05 10:16:26;;;;;;;5.20;4.80;;;;;;;;;;5074039;28;20023;-50
2022/04/05 10:18:58;;;;;;;5.70;5.30;;;;;;;;;;5079825;28;20394;-49
2022/04/05 10:21:25;;;;;;;6.07;5.68;;;;;;;;;;5080111;28;20048;-48
2022/04/05 10:23:53;;;;;;;6.72;6.13;;;;;;;;;;5076399;28;20421;-54
2022/04/05 10:26:24;;;;;;;5.25;4.85;;;;;;;;;;5072352;28;20036;-51
2022/04/05 10:28:51;;;;;;;5.10;4.70;;;;;;;;;;5077563;28;20032;-54
2022/04/05 10:31:39;;;;;;;5.88;5.47;;;;;;;;;;5076525;28;20020;-51
2022/04/05 10:34:07;;;;;;;5.47;5.07;;;;;;;;;;5042138;28;20039;-53
2022/04/05 10:36:33;;;;;;;5.50;5.10;;;;;;;;;;5076648;28;20445;-49
2022/04/05 10:39:31;;;;;;;5.85;5.45;;;;;;;;;;5077376;28;20047;-49
2022/04/05 10:42:08;;;;;;;5.55;5.15;;;;;;;;;;5042606;28;20044;-51
2022/04/05 10:44:38;;;;;;;5.57;5.18;;;;;;;;;;5077792;28;20486;-47
2022/04/05 10:47:06;;;;;;;5.53;5.13;;;;;;;;;;5077022;28;20039;-48
2022/04/05 10:49:40;;;;;;;5.63;5.22;;;;;;;;;;5080307;28;20050;-50
2022/04/05 10:52:11;;;;;;;5.80;5.35;;;;;;;;;;5074561;28;20035;-51
2022/04/05 10:54:49;;;;;;;5.15;4.75;;;;;;;;;;5075794;28;20477;-52
2022/04/05 10:57:37;;;;;;;5.28;4.88;;;;;;;;;;5075801;28;20037;-50
2022/04/05 11:00:20;;;;;;;5.40;5.00;;;;;;;;;;5077116;28;20035;-47
2022/04/05 11:02:52;;;;;;;5.72;5.32;;;;;;;;;;5072113;28;20460;-51
2022/04/05 11:05:20;;;;;;;7.03;5.75;;;;;;;;;;5076837;28;20044;-52
2022/04/05 11:07:52;;;;;;;5.60;5.20;;;;;;;;;;5075042;28;20350;-49
2022/04/05 11:10:26;;;;;;;5.18;4.78;;;;;;;;;;5075650;28;20051;-47
2022/04/05 11:13:21;;;;;;;5.60;5.20;;;;;;;;;;5076053;28;20073;-47
2022/04/05 11:15:46;;;;;;;4.93;4.53;;;;;;;;;;5076070;28;20063;-49
2022/04/05 11:18:20;;;;;;;5.32;4.93;;;;;;;;;;5075826;28;20067;-49
2022/04/05 11:20:47;;;;;;;5.10;4.68;;;;;;;;;;5076374;28;20097;-46
2022/04/05 11:23:16;;;;;;;5.00;4.60;;;;;;;;;;5075377;28;20040;-46
2022/04/05 11:25:43;;;;;;;5.00;4.60;;;;;;;;;;5078186;28;20032;-47
2022/04/05 11:28:17;;;;;;;4.78;4.38;;;;;;;;;;5074871;28;20118;-47
2022/04/05 11:31:02;;;;;;;5.22;4.82;;;;;;;;;;5076084;28;20032;-47
2022/04/05 11:33:31;;;;;;;4.68;4.28;;;;;;;;;;5073967;28;20517;-48
2022/04/05 11:35:58;;;;;;;4.90;4.50;;;;;;;;;;5075596;28;20051;-47
2022/04/05 11:38:28;;;;;;;5.10;4.70;;;;;;;;;;5075850;28;20028;-46
2022/04/05 11:40:55;;;;;;;6.57;6.10;;;;;;;;;;5074508;28;20036;-49
2022/04/05 11:43:29;;;;;;;5.78;5.38;;;;;;;;;;5075832;28;20122;-51
2022/04/05 11:46:02;;;;;;;5.53;5.13;;;;;;;;;;5071807;28;20349;-48
2022/04/05 11:48:28;;;;;;;6.43;5.93;;;;;;;;;;5069792;28;20044;-48
2022/04/05 11:50:55;;;;;;;6.35;5.93;;;;;;;;;;5077752;28;20036;-51
2022/04/05 11:53:23;;;;;;;5.57;5.18;;;;;;;;;;5075099;28;20040;-51
2022/04/05 11:56:22;;;;;;;5.53;5.13;;;;;;;;;;5069525;28;20043;-50
2022/04/05 11:58:53;;;;;;;6.47;5.97;;;;;;;;;;5058608;28;20062;-50
2022/04/05 12:01:21;;;;;;;6.63;6.13;;;;;;;;;;5068713;28;20064;-50
2022/04/05 12:03:58;;;;;;;5.97;5.57;;;;;;;;;;5068977;28;20040;-52
2022/04/05 12:06:32;;;;;;;6.00;5.60;;;;;;;;;;5064955;28;20060;-49
2022/04/05 12:09:02;;;;;;;6.72;6.22;;;;;;;;;;5066251;28;20051;-49
2022/04/05 12:11:30;;;;;;;10.27;5.93;;;;;;;;;;5067418;28;20112;-48
2022/04/05 12:14:01;;;;;;;7.18;6.68;;;;;;;;;;5065494;28;20032;-50
2022/04/05 12:16:43;;;;;;;6.82;6.32;;;;;;;;;;5071648;28;20094;-51
2022/04/05 12:19:09;;;;;;;6.88;6.38;;;;;;;;;;5066694;28;20382;-52
2022/04/05 12:21:34;;;;;;;6.00;5.60;;;;;;;;;;5067417;28;20025;-52
2022/04/05 12:24:00;;;;;;;6.20;5.75;;;;;;;;;;5071085;28;20035;-50
2022/04/05 12:26:31;;;;;;;8.30;7.70;;;;;;;;;;5069948;28;20024;-48
2022/04/05 12:28:57;;;;;;;;;;;;;;;;;;5068039;28;20036;-49
2022/04/05 12:31:26;;;;;;;5.72;5.32;;;;;;;;;;5071482;28;19916;-49
2022/04/05 12:34:05;;;;;;;6.63;6.13;;;;;;;;;;5066702;28;20036;-52
2022/04/05 12:36:43;;;;;;;6.85;6.35;;;;;;;;;;5070773;28;20046;-48
2022/04/05 12:39:20;;;;;;;7.32;6.82;;;;;;;;;;5076286;28;20446;-49
2022/04/05 12:41:50;;;;;;;8.07;7.57;;;;;;;;;;5076792;28;20327;-49
2022/04/05 12:44:18;;;;;;;6.82;6.32;;;;;;;;;;5074434;28;20115;-48
2022/04/05 12:46:47;;;;;;;7.70;7.10;;;;;;;;;;5073020;28;20036;-50
2022/04/05 12:49:14;;;;;;;7.35;6.85;;;;;;;;;;5075657;28;20041;-49
2022/04/05 12:51:40;;;;;;;6.80;6.30;;;;;;;;;;5073614;28;20053;-49
2022/04/05 12:54:23;;;;;;;7.07;6.57;;;;;;;;;;5075087;28;20024;-53
2022/04/05 12:56:48;;;;;;;7.80;7.30;;;;;;;;;;5073358;28;20032;-52
2022/04/05 12:59:24;;;;;;;7.47;6.97;;;;;;;;;;5071915;28;20125;-53
2022/04/05 13:01:56;;;;;;;5.97;5.57;;;;;;;;;;5067959;28;20174;-53
2022/04/05 13:04:24;;;;;;;8.40;7.80;;;;;;;;;;5063725;28;20024;-50
2022/04/05 13:06:53;;;;;;;7.72;7.15;;;;;;;;;;5064249;28;20362;-51
2022/04/05 13:09:27;;;;;;;7.10;6.60;;;;;;;;;;5066772;28;20033;-52
2022/04/05 13:12:11;;;;;;;7.72;7.15;;;;;;;;;;5067438;28;20123;-52
2022/04/05 13:14:38;;;;;;;7.40;6.90;;;;;;;;;;5065074;28;20029;-53
2022/04/05 13:17:04;;;;;;;7.68;7.18;;;;;;;;;;5065822;28;20025;-49
2022/04/05 13:19:30;;;;;;;7.65;7.13;;;;;;;;;;5067530;28;20064;-50
2022/04/05 13:21:56;;;;;;;7.50;7.00;;;;;;;;;;5066766;28;20052;-50
2022/04/05 13:24:25;;;;;;;6.97;6.47;;;;;;;;;;5074062;28;20334;-49
2022/04/05 13:26:52;;;;;;;7.25;6.75;;;;;;;;;;5074138;28;20040;-48
2022/04/05 13:29:20;;;;;;;8.73;8.13;;;;;;;;;;5080316;28;20047;-49
2022/04/05 13:31:52;;;;;;;8.88;8.18;;;;;;;;;;5078705;28;20081;-51
2022/04/05 13:34:23;;;;;;;8.27;7.68;;;;;;;;;;5069315;28;20036;-48
2022/04/05 13:36:50;;;;;;;7.15;6.65;;;;;;;;;;5073876;28;20054;-52
2022/04/05 13:39:15;;;;;;;10.48;9.80;;;;;;;;;;5073916;28;20036;-49
2022/04/05 13:41:41;;;;;;;10.77;10.07;;;;;;;;;;5074625;28;20032;-49
2022/04/05 13:44:09;;;;;;;9.55;8.90;;;;;;;;;;5072802;28;20028;-49
2022/04/05 13:46:35;;;;;;;12.00;11.00;;;;;;;;;;5073857;28;20031;-52
2022/04/05 13:49:09;;;;;;;13.18;12.38;;;;;;;;;;5071204;28;20029;-52
2022/04/05 13:51:36;;;;;;;10.85;10.15;;;;;;;;;;5074989;28;20020;-53
2022/04/05 13:54:03;;;;;;;10.32;9.73;;;;;;;;;;5074874;28;20028;-53
2022/04/05 13:56:32;;;;;;;10.70;10.02;;;;;;;;;;5072659;28;20032;-53
2022/04/05 13:58:57;;;;;;;10.45;9.75;;;;;;;;;;5072952;28;20081;-52
2022/04/05 14:01:24;;;;;;;12.60;11.80;;;;;;;;;;5074037;28;20032;-50
2022/04/05 14:03:50;;;;;;;11.93;11.23;;;;;;;;;;5074839;28;20134;-51
2022/04/05 14:06:15;;;;;;;8.88;8.27;;;;;;;;;;5074176;28;20025;-53
2022/04/05 14:08:43;;;;;;;11.45;10.75;;;;;;;;;;5076413;28;20039;-51
2022/04/05 14:11:09;;;;;;;10.02;9.35;;;;;;;;;;5074033;28;20468;-52
2022/04/05 14:13:34;;;;;;;10.90;10.20;;;;;;;;;;5074893;28;20034;-51
2022/04/05 14:15:59;;;;;;;10.00;9.30;;;;;;;;;;5071470;28;20029;-51
2022/04/05 14:18:25;;;;;;;9.27;8.57;;;;;;;;;;5070901;28;20174;-52
2022/04/05 14:20:50;;;;;;;11.68;10.98;;;;;;;;;;5077541;28;20024;-54
2022/04/05 14:23:15;;;;;;;11.10;10.40;;;;;;;;;;5077981;28;20089;-50
2022/04/05 14:25:41;;;;;;;9.70;9.10;;;;;;;;;;5073426;28;20576;-51
2022/04/05 14:28:08;;;;;;;12.85;12.05;;;;;;;;;;5076947;28;20112;-50
2022/04/05 14:30:33;;;;;;;12.63;11.77;;;;;;;;;;5077684;28;20025;-50
2022/04/05 14:33:00;;;;;;;11.05;10.15;;;;;;;;;;5059956;28;20365;-50
2022/04/05 14:35:25;;;;;;;10.05;9.43;;;;;;;;;;5079510;28;20060;-49
2022/04/05 14:37:51;;;;;;;10.55;9.85;;;;;;;;;;5078788;28;20117;-49
2022/04/05 14:40:16;;;;;;;9.20;8.55;;;;;;;;;;5076824;28;20035;-51
2022/04/05 14:42:42;;;;;;;8.55;7.95;;;;;;;;;;5075900;28;20081;-51
2022/04/05 14:45:08;;;;;;;9.35;8.75;;;;;;;;;;5079432;28;20185;-52
2022/04/05 14:47:33;;;;;;;10.27;9.57;;;;;;;;;;5077681;28;20036;-49